Flight Track Log - Related Links

Times and Time Zones

All times are in EDT time to prevent confusion due to time zone crossing. See the KAP44 flight status page for this flight to view local times or setup timezone preferences in your user account.


Time Position Orientation Groundspeed Altitude Reporting Facility
EDT Latitude Longitude Course Direction KTS MPH feet Rate Location/Type
Thu 06:39:10 PM 42.3500 -71.0167 180° South 111 128 600  Level KA90
Thu 06:40:16 PM 42.3167 -71.0167 180° South 110 127 1,200 586 Climbing KA90
Thu 06:41:23 PM 42.2833 -71.0333 200° South 119 137 1,900 522 Climbing KA90
Thu 06:42:11 PM 42.2500 -71.0333 180° South 150 173 2,200 470 Climbing KA90
Thu 06:43:18 PM 42.2167 -71.0000 143° Southeast 154 177 2,800 545 Climbing KA90
Thu 06:44:12 PM 42.1833 -70.9667 143° Southeast 155 178 3,300 474 Climbing KA90
Thu 06:45:12 PM 42.1500 -70.9333 143° Southeast 154 177 3,700 350 Climbing KA90
Thu 06:46:12 PM 42.1167 -70.9000 143° Southeast 167 192 4,000 462 Climbing KA90
Thu 06:47:09 PM 42.0833 -70.8500 132° Southeast 163 188 4,600 632 Climbing KA90
Thu 06:49:00 PM 42.0246 -70.7933 144° Southeast  Level Estimated
Thu 06:56:00 PM 41.8023 -70.5798 144° Southeast  Level Estimated
Thu 06:57:00 PM 41.7705 -70.5495 145° Southeast  Level Estimated
Thu 06:58:00 PM 41.7387 -70.5191 145° Southeast  Level Estimated
Thu 06:59:00 PM 41.7069 -70.4888 145° Southeast  Level Estimated
Thu 07:00:00 PM 41.6751 -70.4585 145° Southeast  Level Estimated
Thu 07:01:00 PM 41.6433 -70.4282 145° Southeast  Level Estimated
Thu 07:02:00 PM 41.6115 -70.3980 145° Southeast  Level Estimated
Thu 07:03:00 PM 41.5796 -70.3678 145° Southeast  Level Estimated
Thu 07:04:00 PM 41.5478 -70.3376 145° Southeast  Level Estimated
Thu 07:05:00 PM 41.5159 -70.3075 145° Southeast  Level Estimated
Thu 07:06:00 PM 41.4840 -70.2774 145° Southeast  Level Estimated
Thu 07:07:00 PM 41.4522 -70.2473 145° Southeast  Level Estimated
Thu 07:08:00 PM 41.4203 -70.2173 145° Southeast  Level Estimated
Thu 07:09:00 PM 41.3884 -70.1872 145° Southeast  Level Estimated
Thu 07:10:00 PM 41.3565 -70.1572 145° Southeast  Level Estimated
Thu 07:11:00 PM 41.3246 -70.1273 145° Southeast  Level Estimated
Thu 07:12:00 PM 41.2927 -70.0974 145° Southeast  Level Estimated
Thu 07:13:00 PM 41.2608 -70.0675 145° Southeast  Level Estimated
Thu 07:14:00 PM 41.2531 -70.0603 145° Southeast  Level Estimated
Thu 07:15:00 PM 41.2531 -70.0603 72° East  Level Estimated

Login

Don't have an account? Register now (free) for customized features, flight alerts, and more!